sensor_id;sensor_type;location;lat;lon;timestamp;temperature;humidity
9446;DHT22;4761;49.490;10.908;2023-05-07T00:00:32;20.10;53.60
9446;DHT22;4761;49.490;10.908;2023-05-07T00:02:59;20.00;53.50
9446;DHT22;4761;49.490;10.908;2023-05-07T00:05:25;20.00;53.50
9446;DHT22;4761;49.490;10.908;2023-05-07T00:07:51;20.00;53.50
9446;DHT22;4761;49.490;10.908;2023-05-07T00:10:18;20.10;53.50
9446;DHT22;4761;49.490;10.908;2023-05-07T00:12:44;20.10;53.50
9446;DHT22;4761;49.490;10.908;2023-05-07T00:15:09;20.10;53.50
9446;DHT22;4761;49.490;10.908;2023-05-07T00:17:35;20.10;53.50
9446;DHT22;4761;49.490;10.908;2023-05-07T00:20:02;20.10;53.50
9446;DHT22;4761;49.490;10.908;2023-05-07T00:22:29;20.10;53.50
9446;DHT22;4761;49.490;10.908;2023-05-07T00:24:55;20.10;53.50
9446;DHT22;4761;49.490;10.908;2023-05-07T00:27:21;20.10;53.50
9446;DHT22;4761;49.490;10.908;2023-05-07T00:29:47;20.10;53.50
9446;DHT22;4761;49.490;10.908;2023-05-07T00:32:12;20.10;53.60
9446;DHT22;4761;49.490;10.908;2023-05-07T00:34:38;20.10;53.60
9446;DHT22;4761;49.490;10.908;2023-05-07T00:37:04;20.10;53.60
9446;DHT22;4761;49.490;10.908;2023-05-07T00:39:30;20.10;53.60
9446;DHT22;4761;49.490;10.908;2023-05-07T00:41:55;20.10;53.60
9446;DHT22;4761;49.490;10.908;2023-05-07T00:44:21;20.00;53.50
9446;DHT22;4761;49.490;10.908;2023-05-07T00:46:46;20.10;53.60
9446;DHT22;4761;49.490;10.908;2023-05-07T00:49:15;20.00;53.60
9446;DHT22;4761;49.490;10.908;2023-05-07T00:51:41;20.00;53.50
9446;DHT22;4761;49.490;10.908;2023-05-07T00:54:07;20.10;53.60
9446;DHT22;4761;49.490;10.908;2023-05-07T00:56:33;20.00;53.50
9446;DHT22;4761;49.490;10.908;2023-05-07T00:59:01;20.10;53.60
9446;DHT22;4761;49.490;10.908;2023-05-07T01:01:27;20.10;53.60
9446;DHT22;4761;49.490;10.908;2023-05-07T01:03:53;20.10;53.70
9446;DHT22;4761;49.490;10.908;2023-05-07T01:06:19;20.10;53.70
9446;DHT22;4761;49.490;10.908;2023-05-07T01:08:46;20.00;53.60
9446;DHT22;4761;49.490;10.908;2023-05-07T01:11:12;20.10;53.70
9446;DHT22;4761;49.490;10.908;2023-05-07T01:13:39;20.00;53.60
9446;DHT22;4761;49.490;10.908;2023-05-07T01:16:05;20.00;53.70
9446;DHT22;4761;49.490;10.908;2023-05-07T01:18:31;20.00;53.60
9446;DHT22;4761;49.490;10.908;2023-05-07T01:20:58;20.00;53.60
9446;DHT22;4761;49.490;10.908;2023-05-07T01:23:25;20.00;53.60
9446;DHT22;4761;49.490;10.908;2023-05-07T01:25:53;20.00;53.60
9446;DHT22;4761;49.490;10.908;2023-05-07T01:28:18;20.10;53.70
9446;DHT22;4761;49.490;10.908;2023-05-07T01:30:46;20.00;53.60
9446;DHT22;4761;49.490;10.908;2023-05-07T01:33:15;20.00;53.60
9446;DHT22;4761;49.490;10.908;2023-05-07T01:35:46;20.00;53.60
9446;DHT22;4761;49.490;10.908;2023-05-07T01:38:13;20.00;53.60
9446;DHT22;4761;49.490;10.908;2023-05-07T01:40:39;20.00;53.60
9446;DHT22;4761;49.490;10.908;2023-05-07T01:43:05;20.00;53.60
9446;DHT22;4761;49.490;10.908;2023-05-07T01:45:31;20.00;53.60
9446;DHT22;4761;49.490;10.908;2023-05-07T01:47:58;20.00;53.60
9446;DHT22;4761;49.490;10.908;2023-05-07T01:50:25;20.00;53.90
9446;DHT22;4761;49.490;10.908;2023-05-07T01:52:51;20.00;53.50
9446;DHT22;4761;49.490;10.908;2023-05-07T01:55:17;20.00;53.60
9446;DHT22;4761;49.490;10.908;2023-05-07T01:57:43;20.00;53.60
9446;DHT22;4761;49.490;10.908;2023-05-07T02:00:09;20.00;53.50
9446;DHT22;4761;49.490;10.908;2023-05-07T02:02:35;20.00;53.50
9446;DHT22;4761;49.490;10.908;2023-05-07T02:05:01;20.00;53.50
9446;DHT22;4761;49.490;10.908;2023-05-07T02:07:27;20.00;53.50
9446;DHT22;4761;49.490;10.908;2023-05-07T02:09:53;20.00;53.40
9446;DHT22;4761;49.490;10.908;2023-05-07T02:12:20;20.00;53.40
9446;DHT22;4761;49.490;10.908;2023-05-07T02:14:46;20.00;53.30
9446;DHT22;4761;49.490;10.908;2023-05-07T02:17:12;20.00;53.30
9446;DHT22;4761;49.490;10.908;2023-05-07T02:19:37;20.00;53.30
9446;DHT22;4761;49.490;10.908;2023-05-07T02:22:03;20.00;53.30
9446;DHT22;4761;49.490;10.908;2023-05-07T02:24:28;20.00;53.30
9446;DHT22;4761;49.490;10.908;2023-05-07T02:26:54;20.00;53.20
9446;DHT22;4761;49.490;10.908;2023-05-07T02:29:19;20.00;53.30
9446;DHT22;4761;49.490;10.908;2023-05-07T02:31:45;20.00;53.30
9446;DHT22;4761;49.490;10.908;2023-05-07T02:34:10;20.00;53.30
9446;DHT22;4761;49.490;10.908;2023-05-07T02:36:36;20.00;53.30
9446;DHT22;4761;49.490;10.908;2023-05-07T02:39:02;20.00;53.30
9446;DHT22;4761;49.490;10.908;2023-05-07T02:41:28;20.00;53.30
9446;DHT22;4761;49.490;10.908;2023-05-07T02:43:53;20.00;53.30
9446;DHT22;4761;49.490;10.908;2023-05-07T02:46:19;20.00;53.30
9446;DHT22;4761;49.490;10.908;2023-05-07T02:48:44;20.00;53.90
9446;DHT22;4761;49.490;10.908;2023-05-07T02:51:10;20.00;53.30
9446;DHT22;4761;49.490;10.908;2023-05-07T02:53:36;20.00;53.30
9446;DHT22;4761;49.490;10.908;2023-05-07T02:56:02;20.00;53.30
9446;DHT22;4761;49.490;10.908;2023-05-07T02:58:28;19.90;53.20
9446;DHT22;4761;49.490;10.908;2023-05-07T03:00:53;20.00;53.30
9446;DHT22;4761;49.490;10.908;2023-05-07T03:03:22;19.90;53.20
9446;DHT22;4761;49.490;10.908;2023-05-07T03:05:48;19.90;53.20
9446;DHT22;4761;49.490;10.908;2023-05-07T03:08:13;19.90;53.20
9446;DHT22;4761;49.490;10.908;2023-05-07T03:10:39;20.00;53.20
9446;DHT22;4761;49.490;10.908;2023-05-07T03:13:05;20.00;53.10
9446;DHT22;4761;49.490;10.908;2023-05-07T03:15:30;20.00;53.00
9446;DHT22;4761;49.490;10.908;2023-05-07T03:17:56;20.10;52.90
9446;DHT22;4761;49.490;10.908;2023-05-07T03:20:21;20.10;52.90
9446;DHT22;4761;49.490;10.908;2023-05-07T03:22:47;20.10;52.80
9446;DHT22;4761;49.490;10.908;2023-05-07T03:25:13;20.10;52.70
9446;DHT22;4761;49.490;10.908;2023-05-07T03:27:39;20.10;53.30
9446;DHT22;4761;49.490;10.908;2023-05-07T03:30:05;20.10;52.70
9446;DHT22;4761;49.490;10.908;2023-05-07T03:32:32;20.10;52.70
9446;DHT22;4761;49.490;10.908;2023-05-07T03:34:57;20.10;52.70
9446;DHT22;4761;49.490;10.908;2023-05-07T03:37:23;20.10;52.70
9446;DHT22;4761;49.490;10.908;2023-05-07T03:39:48;20.10;52.80
9446;DHT22;4761;49.490;10.908;2023-05-07T03:42:15;20.10;52.60
9446;DHT22;4761;49.490;10.908;2023-05-07T03:44:40;20.10;52.60
9446;DHT22;4761;49.490;10.908;2023-05-07T03:47:06;20.10;53.20
9446;DHT22;4761;49.490;10.908;2023-05-07T03:49:31;20.10;52.60
9446;DHT22;4761;49.490;10.908;2023-05-07T03:51:57;20.10;52.60
9446;DHT22;4761;49.490;10.908;2023-05-07T03:54:22;20.10;52.60
9446;DHT22;4761;49.490;10.908;2023-05-07T03:56:48;20.10;52.60
9446;DHT22;4761;49.490;10.908;2023-05-07T03:59:13;20.00;52.50
9446;DHT22;4761;49.490;10.908;2023-05-07T04:01:39;20.10;52.70
9446;DHT22;4761;49.490;10.908;2023-05-07T04:04:05;20.00;52.50
9446;DHT22;4761;49.490;10.908;2023-05-07T04:06:31;20.10;52.60
9446;DHT22;4761;49.490;10.908;2023-05-07T04:08:57;20.00;52.50
9446;DHT22;4761;49.490;10.908;2023-05-07T04:11:22;20.10;52.50
9446;DHT22;4761;49.490;10.908;2023-05-07T04:13:48;20.10;52.50
9446;DHT22;4761;49.490;10.908;2023-05-07T04:16:14;20.10;52.60
9446;DHT22;4761;49.490;10.908;2023-05-07T04:18:39;20.00;52.50
9446;DHT22;4761;49.490;10.908;2023-05-07T04:21:05;20.10;52.70
9446;DHT22;4761;49.490;10.908;2023-05-07T04:23:31;20.00;52.60
9446;DHT22;4761;49.490;10.908;2023-05-07T04:25:56;20.00;52.60
9446;DHT22;4761;49.490;10.908;2023-05-07T04:28:23;20.00;52.70
9446;DHT22;4761;49.490;10.908;2023-05-07T04:30:48;20.00;52.60
9446;DHT22;4761;49.490;10.908;2023-05-07T04:33:14;20.00;52.70
9446;DHT22;4761;49.490;10.908;2023-05-07T04:35:43;20.00;52.70
9446;DHT22;4761;49.490;10.908;2023-05-07T04:38:09;20.00;52.70
9446;DHT22;4761;49.490;10.908;2023-05-07T04:40:35;20.00;52.80
9446;DHT22;4761;49.490;10.908;2023-05-07T04:43:01;20.00;52.70
9446;DHT22;4761;49.490;10.908;2023-05-07T04:45:27;20.00;52.80
9446;DHT22;4761;49.490;10.908;2023-05-07T04:47:52;20.00;52.80
9446;DHT22;4761;49.490;10.908;2023-05-07T04:50:18;20.00;52.70
9446;DHT22;4761;49.490;10.908;2023-05-07T04:52:44;20.00;52.70
9446;DHT22;4761;49.490;10.908;2023-05-07T04:55:10;20.00;52.70
9446;DHT22;4761;49.490;10.908;2023-05-07T04:57:36;20.00;52.70
9446;DHT22;4761;49.490;10.908;2023-05-07T05:00:03;20.00;52.60
9446;DHT22;4761;49.490;10.908;2023-05-07T05:02:29;20.00;52.50
9446;DHT22;4761;49.490;10.908;2023-05-07T05:04:55;20.00;52.60
9446;DHT22;4761;49.490;10.908;2023-05-07T05:07:20;20.00;52.50
9446;DHT22;4761;49.490;10.908;2023-05-07T05:09:46;20.00;52.50
9446;DHT22;4761;49.490;10.908;2023-05-07T05:12:11;20.00;52.50
9446;DHT22;4761;49.490;10.908;2023-05-07T05:14:37;20.00;52.40
9446;DHT22;4761;49.490;10.908;2023-05-07T05:17:02;20.00;52.40
9446;DHT22;4761;49.490;10.908;2023-05-07T05:19:28;20.00;52.30
9446;DHT22;4761;49.490;10.908;2023-05-07T05:21:54;20.00;52.30
9446;DHT22;4761;49.490;10.908;2023-05-07T05:24:19;20.00;52.20
9446;DHT22;4761;49.490;10.908;2023-05-07T05:26:45;20.00;52.30
9446;DHT22;4761;49.490;10.908;2023-05-07T05:29:10;20.10;52.40
9446;DHT22;4761;49.490;10.908;2023-05-07T05:31:36;20.00;52.20
9446;DHT22;4761;49.490;10.908;2023-05-07T05:34:02;20.00;52.20
9446;DHT22;4761;49.490;10.908;2023-05-07T05:36:28;20.00;52.10
9446;DHT22;4761;49.490;10.908;2023-05-07T05:38:53;20.00;52.20
9446;DHT22;4761;49.490;10.908;2023-05-07T05:41:19;20.00;52.10
9446;DHT22;4761;49.490;10.908;2023-05-07T05:43:44;20.10;52.10
9446;DHT22;4761;49.490;10.908;2023-05-07T05:46:10;20.10;52.10
9446;DHT22;4761;49.490;10.908;2023-05-07T05:48:36;20.10;52.10
9446;DHT22;4761;49.490;10.908;2023-05-07T05:51:02;20.10;52.10
9446;DHT22;4761;49.490;10.908;2023-05-07T05:53:28;20.10;52.10
9446;DHT22;4761;49.490;10.908;2023-05-07T05:55:53;20.10;52.00
9446;DHT22;4761;49.490;10.908;2023-05-07T05:58:19;20.10;52.00
9446;DHT22;4761;49.490;10.908;2023-05-07T06:00:46;20.10;52.00
9446;DHT22;4761;49.490;10.908;2023-05-07T06:03:12;20.10;52.00
9446;DHT22;4761;49.490;10.908;2023-05-07T06:05:37;20.10;52.00
9446;DHT22;4761;49.490;10.908;2023-05-07T06:08:03;20.10;52.00
9446;DHT22;4761;49.490;10.908;2023-05-07T06:10:28;20.10;52.00
9446;DHT22;4761;49.490;10.908;2023-05-07T06:12:55;20.00;51.90
9446;DHT22;4761;49.490;10.908;2023-05-07T06:15:21;20.10;52.00
9446;DHT22;4761;49.490;10.908;2023-05-07T06:17:46;20.10;52.00
9446;DHT22;4761;49.490;10.908;2023-05-07T06:20:12;20.10;52.00
9446;DHT22;4761;49.490;10.908;2023-05-07T06:22:37;20.10;52.00
9446;DHT22;4761;49.490;10.908;2023-05-07T06:25:03;20.10;52.00
9446;DHT22;4761;49.490;10.908;2023-05-07T06:27:28;20.10;52.00
9446;DHT22;4761;49.490;10.908;2023-05-07T06:29:54;20.10;51.90
9446;DHT22;4761;49.490;10.908;2023-05-07T06:32:19;20.10;51.90
9446;DHT22;4761;49.490;10.908;2023-05-07T06:34:45;20.10;51.90
9446;DHT22;4761;49.490;10.908;2023-05-07T06:37:10;20.10;51.90
9446;DHT22;4761;49.490;10.908;2023-05-07T06:39:36;20.10;51.80
9446;DHT22;4761;49.490;10.908;2023-05-07T06:42:02;20.10;51.80
9446;DHT22;4761;49.490;10.908;2023-05-07T06:44:28;20.10;51.80
9446;DHT22;4761;49.490;10.908;2023-05-07T06:46:53;20.10;51.80
9446;DHT22;4761;49.490;10.908;2023-05-07T06:49:19;20.10;51.90
9446;DHT22;4761;49.490;10.908;2023-05-07T06:51:44;20.20;52.60
9446;DHT22;4761;49.490;10.908;2023-05-07T06:54:10;20.00;52.80
9446;DHT22;4761;49.490;10.908;2023-05-07T06:56:35;19.90;53.10
9446;DHT22;4761;49.490;10.908;2023-05-07T06:59:02;19.90;53.30
9446;DHT22;4761;49.490;10.908;2023-05-07T07:01:28;19.90;53.20
9446;DHT22;4761;49.490;10.908;2023-05-07T07:03:53;19.90;53.10
9446;DHT22;4761;49.490;10.908;2023-05-07T07:06:19;20.00;53.00
9446;DHT22;4761;49.490;10.908;2023-05-07T07:08:45;20.10;52.80
9446;DHT22;4761;49.490;10.908;2023-05-07T07:11:10;20.10;53.10
9446;DHT22;4761;49.490;10.908;2023-05-07T07:13:36;20.10;52.30
9446;DHT22;4761;49.490;10.908;2023-05-07T07:16:02;20.20;52.00
9446;DHT22;4761;49.490;10.908;2023-05-07T07:18:28;20.20;51.80
9446;DHT22;4761;49.490;10.908;2023-05-07T07:20:53;20.30;51.70
9446;DHT22;4761;49.490;10.908;2023-05-07T07:23:19;20.30;51.50
9446;DHT22;4761;49.490;10.908;2023-05-07T07:25:45;20.40;51.40
9446;DHT22;4761;49.490;10.908;2023-05-07T07:28:10;20.40;51.30
9446;DHT22;4761;49.490;10.908;2023-05-07T07:30:37;20.40;51.10
9446;DHT22;4761;49.490;10.908;2023-05-07T07:33:03;20.40;50.90
9446;DHT22;4761;49.490;10.908;2023-05-07T07:35:32;20.50;50.90
9446;DHT22;4761;49.490;10.908;2023-05-07T07:37:58;20.50;50.80
9446;DHT22;4761;49.490;10.908;2023-05-07T07:40:24;20.60;50.70
9446;DHT22;4761;49.490;10.908;2023-05-07T07:42:50;20.50;50.50
9446;DHT22;4761;49.490;10.908;2023-05-07T07:45:16;20.50;50.50
9446;DHT22;4761;49.490;10.908;2023-05-07T07:47:42;20.50;50.40
9446;DHT22;4761;49.490;10.908;2023-05-07T07:50:08;20.60;50.40
9446;DHT22;4761;49.490;10.908;2023-05-07T07:52:34;20.60;50.40
9446;DHT22;4761;49.490;10.908;2023-05-07T07:55:00;20.60;50.40
9446;DHT22;4761;49.490;10.908;2023-05-07T07:57:25;20.70;50.40
9446;DHT22;4761;49.490;10.908;2023-05-07T07:59:51;20.60;50.30
9446;DHT22;4761;49.490;10.908;2023-05-07T08:02:17;20.70;50.40
9446;DHT22;4761;49.490;10.908;2023-05-07T08:04:42;20.90;49.80
9446;DHT22;4761;49.490;10.908;2023-05-07T08:07:09;20.90;49.50
9446;DHT22;4761;49.490;10.908;2023-05-07T08:09:35;20.90;49.70
9446;DHT22;4761;49.490;10.908;2023-05-07T08:12:01;20.80;49.90
9446;DHT22;4761;49.490;10.908;2023-05-07T08:14:26;20.70;50.10
9446;DHT22;4761;49.490;10.908;2023-05-07T08:16:53;20.70;50.20
9446;DHT22;4761;49.490;10.908;2023-05-07T08:19:19;20.60;50.30
9446;DHT22;4761;49.490;10.908;2023-05-07T08:21:45;20.60;50.40
9446;DHT22;4761;49.490;10.908;2023-05-07T08:24:16;20.50;50.50
9446;DHT22;4761;49.490;10.908;2023-05-07T08:26:41;20.50;50.60
9446;DHT22;4761;49.490;10.908;2023-05-07T08:29:07;20.60;50.80
9446;DHT22;4761;49.490;10.908;2023-05-07T08:31:33;20.50;50.70
9446;DHT22;4761;49.490;10.908;2023-05-07T08:33:59;20.50;50.80
9446;DHT22;4761;49.490;10.908;2023-05-07T08:36:25;20.50;50.90
9446;DHT22;4761;49.490;10.908;2023-05-07T08:38:53;20.50;50.90
9446;DHT22;4761;49.490;10.908;2023-05-07T08:41:20;20.50;51.10
9446;DHT22;4761;49.490;10.908;2023-05-07T08:43:48;20.50;51.70
9446;DHT22;4761;49.490;10.908;2023-05-07T08:46:20;20.50;51.10
9446;DHT22;4761;49.490;10.908;2023-05-07T08:48:49;20.50;51.20
9446;DHT22;4761;49.490;10.908;2023-05-07T08:51:18;20.50;51.20
9446;DHT22;4761;49.490;10.908;2023-05-07T08:53:44;20.50;51.30
9446;DHT22;4761;49.490;10.908;2023-05-07T08:56:10;20.50;51.30
9446;DHT22;4761;49.490;10.908;2023-05-07T08:58:36;20.50;51.30
9446;DHT22;4761;49.490;10.908;2023-05-07T09:01:12;20.50;51.40
9446;DHT22;4761;49.490;10.908;2023-05-07T09:03:38;20.50;51.40
9446;DHT22;4761;49.490;10.908;2023-05-07T09:06:05;20.50;51.40
9446;DHT22;4761;49.490;10.908;2023-05-07T09:08:33;20.50;51.40
9446;DHT22;4761;49.490;10.908;2023-05-07T09:10:59;20.50;51.40
9446;DHT22;4761;49.490;10.908;2023-05-07T09:13:25;20.50;51.50
9446;DHT22;4761;49.490;10.908;2023-05-07T09:15:52;20.50;51.50
9446;DHT22;4761;49.490;10.908;2023-05-07T09:18:17;20.50;51.50
9446;DHT22;4761;49.490;10.908;2023-05-07T09:20:43;20.50;51.50
9446;DHT22;4761;49.490;10.908;2023-05-07T09:23:08;20.50;51.60
9446;DHT22;4761;49.490;10.908;2023-05-07T09:25:35;20.50;51.50
9446;DHT22;4761;49.490;10.908;2023-05-07T09:28:02;20.60;51.70
9446;DHT22;4761;49.490;10.908;2023-05-07T09:30:32;20.50;51.60
9446;DHT22;4761;49.490;10.908;2023-05-07T09:32:58;20.60;51.70
9446;DHT22;4761;49.490;10.908;2023-05-07T09:35:25;20.60;51.80
9446;DHT22;4761;49.490;10.908;2023-05-07T09:37:57;20.60;51.70
9446;DHT22;4761;49.490;10.908;2023-05-07T09:40:27;20.50;51.80
9446;DHT22;4761;49.490;10.908;2023-05-07T09:42:54;20.60;51.90
9446;DHT22;4761;49.490;10.908;2023-05-07T09:45:27;20.50;51.70
9446;DHT22;4761;49.490;10.908;2023-05-07T09:47:56;20.50;51.70
9446;DHT22;4761;49.490;10.908;2023-05-07T09:50:27;20.60;51.70
9446;DHT22;4761;49.490;10.908;2023-05-07T09:52:54;20.60;51.80
9446;DHT22;4761;49.490;10.908;2023-05-07T09:55:20;20.60;51.80
9446;DHT22;4761;49.490;10.908;2023-05-07T09:57:49;20.60;52.10
9446;DHT22;4761;49.490;10.908;2023-05-07T10:00:15;20.70;52.20
9446;DHT22;4761;49.490;10.908;2023-05-07T10:02:43;20.70;52.10
9446;DHT22;4761;49.490;10.908;2023-05-07T10:05:14;20.60;51.70
9446;DHT22;4761;49.490;10.908;2023-05-07T10:07:41;20.70;52.00
9446;DHT22;4761;49.490;10.908;2023-05-07T10:10:07;20.70;51.70
9446;DHT22;4761;49.490;10.908;2023-05-07T10:12:32;20.70;51.70
9446;DHT22;4761;49.490;10.908;2023-05-07T10:15:05;20.70;51.50
9446;DHT22;4761;49.490;10.908;2023-05-07T10:17:32;20.70;51.40
9446;DHT22;4761;49.490;10.908;2023-05-07T10:19:58;20.70;51.40
9446;DHT22;4761;49.490;10.908;2023-05-07T10:22:24;20.70;51.40
9446;DHT22;4761;49.490;10.908;2023-05-07T10:24:52;20.70;51.40
9446;DHT22;4761;49.490;10.908;2023-05-07T10:27:20;20.70;51.30
9446;DHT22;4761;49.490;10.908;2023-05-07T10:30:15;20.70;51.20
9446;DHT22;4761;49.490;10.908;2023-05-07T10:32:51;20.70;51.10
9446;DHT22;4761;49.490;10.908;2023-05-07T10:35:25;20.70;51.10
9446;DHT22;4761;49.490;10.908;2023-05-07T10:37:51;20.70;51.10
9446;DHT22;4761;49.490;10.908;2023-05-07T10:40:17;20.70;51.10
9446;DHT22;4761;49.490;10.908;2023-05-07T10:42:55;20.70;50.80
9446;DHT22;4761;49.490;10.908;2023-05-07T10:45:21;20.80;50.80
9446;DHT22;4761;49.490;10.908;2023-05-07T10:48:12;20.70;50.60
9446;DHT22;4761;49.490;10.908;2023-05-07T10:50:39;20.70;50.60
9446;DHT22;4761;49.490;10.908;2023-05-07T10:55:45;20.80;51.00
9446;DHT22;4761;49.490;10.908;2023-05-07T10:58:25;20.80;50.70
9446;DHT22;4761;49.490;10.908;2023-05-07T11:01:04;20.80;50.70
9446;DHT22;4761;49.490;10.908;2023-05-07T11:03:30;20.80;51.00
9446;DHT22;4761;49.490;10.908;2023-05-07T11:06:15;20.80;51.00
9446;DHT22;4761;49.490;10.908;2023-05-07T11:08:56;20.80;50.50
9446;DHT22;4761;49.490;10.908;2023-05-07T11:11:44;20.80;50.50
9446;DHT22;4761;49.490;10.908;2023-05-07T11:14:09;20.80;50.50
9446;DHT22;4761;49.490;10.908;2023-05-07T11:16:36;20.80;50.50
9446;DHT22;4761;49.490;10.908;2023-05-07T11:19:03;20.80;50.70
9446;DHT22;4761;49.490;10.908;2023-05-07T11:21:35;20.80;50.70
9446;DHT22;4761;49.490;10.908;2023-05-07T11:24:02;20.80;50.60
9446;DHT22;4761;49.490;10.908;2023-05-07T11:26:30;20.80;50.60
9446;DHT22;4761;49.490;10.908;2023-05-07T11:28:56;20.90;50.80
9446;DHT22;4761;49.490;10.908;2023-05-07T11:31:25;20.90;50.80
9446;DHT22;4761;49.490;10.908;2023-05-07T11:36:18;20.90;50.90
9446;DHT22;4761;49.490;10.908;2023-05-07T11:38:43;20.90;50.80
9446;DHT22;4761;49.490;10.908;2023-05-07T11:41:09;20.90;50.80
9446;DHT22;4761;49.490;10.908;2023-05-07T11:43:35;20.90;50.70
9446;DHT22;4761;49.490;10.908;2023-05-07T11:46:11;21.00;50.80
9446;DHT22;4761;49.490;10.908;2023-05-07T11:48:37;21.00;50.80
9446;DHT22;4761;49.490;10.908;2023-05-07T11:51:07;21.00;50.90
9446;DHT22;4761;49.490;10.908;2023-05-07T11:53:40;21.00;50.80
9446;DHT22;4761;49.490;10.908;2023-05-07T11:56:10;21.00;50.90
9446;DHT22;4761;49.490;10.908;2023-05-07T11:58:36;21.00;50.90
9446;DHT22;4761;49.490;10.908;2023-05-07T12:01:02;21.00;50.90
9446;DHT22;4761;49.490;10.908;2023-05-07T12:03:28;20.90;50.90
9446;DHT22;4761;49.490;10.908;2023-05-07T12:05:53;21.00;50.90
9446;DHT22;4761;49.490;10.908;2023-05-07T12:08:20;20.90;50.90
9446;DHT22;4761;49.490;10.908;2023-05-07T12:10:49;20.90;51.00
9446;DHT22;4761;49.490;10.908;2023-05-07T12:13:18;21.00;51.10
9446;DHT22;4761;49.490;10.908;2023-05-07T12:15:44;20.90;51.00
9446;DHT22;4761;49.490;10.908;2023-05-07T12:18:11;20.90;51.10
9446;DHT22;4761;49.490;10.908;2023-05-07T12:20:37;20.90;51.20
9446;DHT22;4761;49.490;10.908;2023-05-07T12:23:03;20.90;51.20
9446;DHT22;4761;49.490;10.908;2023-05-07T12:25:36;20.90;51.10
9446;DHT22;4761;49.490;10.908;2023-05-07T12:28:02;20.90;51.10
9446;DHT22;4761;49.490;10.908;2023-05-07T12:30:39;20.90;51.10
9446;DHT22;4761;49.490;10.908;2023-05-07T12:33:05;21.00;51.20
9446;DHT22;4761;49.490;10.908;2023-05-07T12:35:32;20.90;51.10
9446;DHT22;4761;49.490;10.908;2023-05-07T12:38:01;20.90;51.10
9446;DHT22;4761;49.490;10.908;2023-05-07T12:40:55;20.90;51.10
9446;DHT22;4761;49.490;10.908;2023-05-07T12:43:24;20.90;51.10
9446;DHT22;4761;49.490;10.908;2023-05-07T12:45:51;21.00;51.20
9446;DHT22;4761;49.490;10.908;2023-05-07T12:48:17;21.00;51.10
9446;DHT22;4761;49.490;10.908;2023-05-07T12:50:44;21.00;51.10
9446;DHT22;4761;49.490;10.908;2023-05-07T12:53:11;21.00;51.00
9446;DHT22;4761;49.490;10.908;2023-05-07T12:55:45;21.00;51.00
9446;DHT22;4761;49.490;10.908;2023-05-07T12:58:25;21.00;51.00
9446;DHT22;4761;49.490;10.908;2023-05-07T13:00:52;21.00;51.00
9446;DHT22;4761;49.490;10.908;2023-05-07T13:03:31;21.00;50.90
9446;DHT22;4761;49.490;10.908;2023-05-07T13:06:10;21.00;51.00
9446;DHT22;4761;49.490;10.908;2023-05-07T13:08:37;21.00;50.90
9446;DHT22;4761;49.490;10.908;2023-05-07T13:11:07;21.00;51.00
9446;DHT22;4761;49.490;10.908;2023-05-07T13:13:35;21.00;51.00
9446;DHT22;4761;49.490;10.908;2023-05-07T13:16:01;21.00;51.10
9446;DHT22;4761;49.490;10.908;2023-05-07T13:18:29;21.00;51.00
9446;DHT22;4761;49.490;10.908;2023-05-07T13:20:54;21.00;51.00
9446;DHT22;4761;49.490;10.908;2023-05-07T13:23:20;20.90;48.80
9446;DHT22;4761;49.490;10.908;2023-05-07T13:25:46;20.70;48.00
9446;DHT22;4761;49.490;10.908;2023-05-07T13:28:11;20.60;46.80
9446;DHT22;4761;49.490;10.908;2023-05-07T13:30:37;20.50;47.00
9446;DHT22;4761;49.490;10.908;2023-05-07T13:33:03;20.50;46.20
9446;DHT22;4761;49.490;10.908;2023-05-07T13:35:29;20.40;45.80
9446;DHT22;4761;49.490;10.908;2023-05-07T13:37:55;20.40;46.00
9446;DHT22;4761;49.490;10.908;2023-05-07T13:40:21;20.40;46.10
9446;DHT22;4761;49.490;10.908;2023-05-07T13:42:47;20.30;47.20
9446;DHT22;4761;49.490;10.908;2023-05-07T13:45:13;20.30;47.90
9446;DHT22;4761;49.490;10.908;2023-05-07T13:47:40;20.30;48.30
9446;DHT22;4761;49.490;10.908;2023-05-07T13:50:07;20.30;48.30
9446;DHT22;4761;49.490;10.908;2023-05-07T13:52:32;20.30;48.70
9446;DHT22;4761;49.490;10.908;2023-05-07T13:54:58;20.30;49.00
9446;DHT22;4761;49.490;10.908;2023-05-07T13:57:24;20.30;48.60
9446;DHT22;4761;49.490;10.908;2023-05-07T13:59:50;20.40;48.90
9446;DHT22;4761;49.490;10.908;2023-05-07T14:02:15;20.40;48.60
9446;DHT22;4761;49.490;10.908;2023-05-07T14:04:41;20.50;46.00
9446;DHT22;4761;49.490;10.908;2023-05-07T14:07:06;20.50;46.00
9446;DHT22;4761;49.490;10.908;2023-05-07T14:09:32;20.50;46.60
9446;DHT22;4761;49.490;10.908;2023-05-07T14:11:58;20.40;47.70
9446;DHT22;4761;49.490;10.908;2023-05-07T14:14:24;20.40;48.50
9446;DHT22;4761;49.490;10.908;2023-05-07T14:16:49;20.40;48.60
9446;DHT22;4761;49.490;10.908;2023-05-07T14:19:15;20.50;49.00
9446;DHT22;4761;49.490;10.908;2023-05-07T14:21:41;20.60;49.20
9446;DHT22;4761;49.490;10.908;2023-05-07T14:24:07;20.60;49.20
9446;DHT22;4761;49.490;10.908;2023-05-07T14:26:34;20.70;49.10
9446;DHT22;4761;49.490;10.908;2023-05-07T14:28:59;20.70;49.10
9446;DHT22;4761;49.490;10.908;2023-05-07T14:31:25;20.80;49.40
9446;DHT22;4761;49.490;10.908;2023-05-07T14:33:51;20.80;49.40
9446;DHT22;4761;49.490;10.908;2023-05-07T14:36:17;20.80;49.30
9446;DHT22;4761;49.490;10.908;2023-05-07T14:38:45;20.80;49.20
9446;DHT22;4761;49.490;10.908;2023-05-07T14:41:11;20.80;49.20
9446;DHT22;4761;49.490;10.908;2023-05-07T14:43:36;20.90;49.20
9446;DHT22;4761;49.490;10.908;2023-05-07T14:46:02;20.90;49.20
9446;DHT22;4761;49.490;10.908;2023-05-07T14:48:27;20.90;49.20
9446;DHT22;4761;49.490;10.908;2023-05-07T14:50:53;20.90;49.20
9446;DHT22;4761;49.490;10.908;2023-05-07T14:53:18;20.90;49.10
9446;DHT22;4761;49.490;10.908;2023-05-07T14:55:44;20.90;49.00
9446;DHT22;4761;49.490;10.908;2023-05-07T14:58:11;20.90;48.90
9446;DHT22;4761;49.490;10.908;2023-05-07T15:00:36;20.90;48.90
9446;DHT22;4761;49.490;10.908;2023-05-07T15:03:08;20.90;48.80
9446;DHT22;4761;49.490;10.908;2023-05-07T15:05:34;21.00;48.70
9446;DHT22;4761;49.490;10.908;2023-05-07T15:07:59;20.90;48.60
9446;DHT22;4761;49.490;10.908;2023-05-07T15:10:25;21.00;48.60
9446;DHT22;4761;49.490;10.908;2023-05-07T15:12:51;21.00;48.50
9446;DHT22;4761;49.490;10.908;2023-05-07T15:15:16;21.00;48.40
9446;DHT22;4761;49.490;10.908;2023-05-07T15:17:42;21.00;48.30
9446;DHT22;4761;49.490;10.908;2023-05-07T15:20:08;21.00;48.30
9446;DHT22;4761;49.490;10.908;2023-05-07T15:22:34;21.00;48.20
9446;DHT22;4761;49.490;10.908;2023-05-07T15:25:01;21.00;48.10
9446;DHT22;4761;49.490;10.908;2023-05-07T15:27:27;21.00;48.00
9446;DHT22;4761;49.490;10.908;2023-05-07T15:29:52;21.00;47.90
9446;DHT22;4761;49.490;10.908;2023-05-07T15:32:18;21.00;47.70
9446;DHT22;4761;49.490;10.908;2023-05-07T15:34:43;21.00;47.70
9446;DHT22;4761;49.490;10.908;2023-05-07T15:37:09;21.00;47.70
9446;DHT22;4761;49.490;10.908;2023-05-07T15:39:35;21.00;47.50
9446;DHT22;4761;49.490;10.908;2023-05-07T15:42:00;21.00;47.20
9446;DHT22;4761;49.490;10.908;2023-05-07T15:44:26;21.00;47.10
9446;DHT22;4761;49.490;10.908;2023-05-07T15:46:53;21.10;47.00